createdAt,value
2018-03-22T00:00:17.402Z,102080.27
2018-03-22T00:01:20.768Z,102078.93
2018-03-22T00:02:24.163Z,102074.09
2018-03-22T00:03:27.578Z,102070.98
2018-03-22T00:04:30.902Z,102064.39
2018-03-22T00:05:34.258Z,102064.41
2018-03-22T00:06:37.660Z,102059.11
2018-03-22T00:07:41.038Z,102064.84
2018-03-22T00:08:44.392Z,102056.91
2018-03-22T00:09:47.708Z,102065.19
2018-03-22T00:10:51.094Z,102066.08
2018-03-22T00:11:54.441Z,102057.28
2018-03-22T00:12:57.781Z,102062.97
2018-03-22T00:14:01.163Z,102063.42
2018-03-22T00:15:04.477Z,102063.42
2018-03-22T00:16:07.816Z,102062.56
2018-03-22T00:17:11.163Z,102057.26
2018-03-22T00:18:14.571Z,102053.72
2018-03-22T00:19:18.118Z,102055.46
2018-03-22T00:20:21.451Z,102050.19
2018-03-22T00:21:24.793Z,102049.73
2018-03-22T00:22:38.960Z,102046.67
2018-03-22T00:23:42.317Z,102040.16
2018-03-22T00:24:45.722Z,102042.77
2018-03-22T00:25:49.047Z,102047.13
2018-03-22T00:26:53.072Z,102040.94
2018-03-22T00:27:56.445Z,102039.63
2018-03-22T00:28:59.820Z,102042.26
2018-03-22T00:30:03.237Z,102040.88
2018-03-22T00:31:06.730Z,102033.84
2018-03-22T00:32:10.062Z,102028.55
2018-03-22T00:33:13.410Z,102029.86
2018-03-22T00:34:16.743Z,102025.91
2018-03-22T00:35:20.068Z,102023.70
2018-03-22T00:36:23.390Z,102028.52
2018-03-22T00:37:26.843Z,102025.00
2018-03-22T00:38:30.196Z,102024.13
2018-03-22T00:39:33.543Z,102020.16
2018-03-22T00:40:36.884Z,102010.93
2018-03-22T00:41:41.161Z,102013.56
2018-03-22T00:42:44.458Z,102005.66
2018-03-22T00:43:47.798Z,102003.02
2018-03-22T00:44:51.192Z,102000.76
2018-03-22T00:45:54.566Z,101998.58
2018-03-22T00:46:57.864Z,101997.67
2018-03-22T00:48:01.183Z,101991.97
2018-03-22T00:49:04.624Z,101993.71
2018-03-22T00:50:08.019Z,101991.08
2018-03-22T00:51:11.394Z,101990.67
2018-03-22T00:52:14.702Z,101986.27
2018-03-22T00:53:18.024Z,101986.27
2018-03-22T00:54:21.373Z,101980.99
2018-03-22T00:55:24.761Z,101988.47
2018-03-22T00:56:28.089Z,101984.14
2018-03-22T00:57:31.520Z,101981.96
2018-03-22T00:58:34.821Z,101983.30
2018-03-22T00:59:38.151Z,101987.26
2018-03-22T01:00:41.510Z,101983.77
2018-03-22T01:01:45.575Z,101978.92
2018-03-22T01:02:48.932Z,101973.66
2018-03-22T01:03:52.292Z,101974.51
2018-03-22T01:04:55.667Z,101976.67
2018-03-22T01:05:59.053Z,101978.81
2018-03-22T01:07:02.455Z,101970.47
2018-03-22T01:08:05.791Z,101972.20
2018-03-22T01:09:09.140Z,101959.02
2018-03-22T01:10:12.489Z,101957.22
2018-03-22T01:11:15.873Z,101956.33
2018-03-22T01:12:19.306Z,101958.53
2018-03-22T01:13:22.632Z,101947.05
2018-03-22T01:14:26.086Z,101950.55
2018-03-22T01:15:29.376Z,101946.16
2018-03-22T01:16:32.762Z,101946.99
2018-03-22T01:17:36.048Z,101940.42
2018-03-22T01:18:39.388Z,101936.85
2018-03-22T01:19:42.710Z,101938.60
2018-03-22T01:20:46.086Z,101938.11
2018-03-22T01:21:49.790Z,101932.02
2018-03-22T01:22:53.141Z,101928.86
2018-03-22T01:23:56.568Z,101924.45
2018-03-22T01:24:59.947Z,101923.99
2018-03-22T01:26:03.341Z,101928.83
2018-03-22T01:27:06.691Z,101920.47
2018-03-22T01:28:10.281Z,101916.00
2018-03-22T01:29:13.677Z,101915.17
2018-03-22T01:30:28.844Z,101910.35
2018-03-22T01:31:32.194Z,101910.95
2018-03-22T01:32:35.613Z,101902.18
2018-03-22T01:33:38.915Z,101908.74
2018-03-22T01:34:42.238Z,101906.11
2018-03-22T01:35:45.552Z,101900.38
2018-03-22T01:36:48.989Z,101899.43
2018-03-22T01:37:52.336Z,101896.77
2018-03-22T01:38:55.755Z,101889.72
2018-03-22T01:39:59.064Z,101883.53
2018-03-22T01:41:02.387Z,101884.34
2018-03-22T01:42:07.309Z,101885.20
2018-03-22T01:43:10.729Z,101876.86
2018-03-22T01:44:14.095Z,101875.52
2018-03-22T01:45:17.466Z,101874.16
2018-03-22T01:46:20.746Z,101872.84
2018-03-22T01:47:24.090Z,101868.00
2018-03-22T01:48:27.427Z,101864.48
2018-03-22T01:49:30.765Z,101865.73
2018-03-22T01:50:34.088Z,101854.71
2018-03-22T01:51:37.414Z,101857.83
2018-03-22T01:52:52.413Z,101858.29
2018-03-22T01:53:55.767Z,101846.11
2018-03-22T01:54:59.201Z,101851.38
2018-03-22T01:56:02.525Z,101853.56
2018-03-22T01:57:05.839Z,101846.95
2018-03-22T01:58:09.145Z,101842.10
2018-03-22T01:59:13.528Z,101843.33
2018-03-22T02:00:16.840Z,101842.41
2018-03-22T02:01:20.159Z,101842.81
2018-03-22T02:02:23.469Z,101840.61
2018-03-22T02:03:26.807Z,101837.03
2018-03-22T02:04:30.159Z,101842.73
2018-03-22T02:05:33.507Z,101834.36
2018-03-22T02:06:36.831Z,101827.77
2018-03-22T02:07:40.178Z,101828.62
2018-03-22T02:08:43.564Z,101831.30
2018-03-22T02:09:47.005Z,101829.52
2018-03-22T02:10:50.300Z,101828.62
2018-03-22T02:11:53.645Z,101824.22
2018-03-22T02:12:57.003Z,101824.65
2018-03-22T02:14:00.356Z,101821.95
2018-03-22T02:15:03.845Z,101820.60
2018-03-22T02:16:07.175Z,101821.06
2018-03-22T02:17:10.525Z,101820.23
2018-03-22T02:18:13.934Z,101817.54
2018-03-22T02:19:18.055Z,101814.88
2018-03-22T02:20:21.375Z,101814.91
2018-03-22T02:21:24.828Z,101812.27
2018-03-22T02:22:28.161Z,101804.81
2018-03-22T02:23:31.456Z,101807.05
2018-03-22T02:24:34.832Z,101803.13
2018-03-22T02:25:38.144Z,101793.47
2018-03-22T02:26:41.465Z,101790.41
2018-03-22T02:27:44.924Z,101793.92
2018-03-22T02:28:48.324Z,101796.16
2018-03-22T02:29:51.651Z,101792.66
2018-03-22T02:30:55.137Z,101791.84
2018-03-22T02:31:58.469Z,101790.13
2018-03-22T02:33:01.835Z,101792.30
2018-03-22T02:34:05.186Z,101797.17
2018-03-22T02:35:08.508Z,101804.62
2018-03-22T02:36:11.910Z,101809.86
2018-03-22T02:37:15.254Z,101810.72
2018-03-22T02:38:18.651Z,101814.16
2018-03-22T02:39:21.992Z,101811.92
2018-03-22T02:40:25.451Z,101808.83
2018-03-22T02:41:28.843Z,101805.73
2018-03-22T02:42:33.495Z,101804.33
2018-03-22T02:43:36.897Z,101806.53
2018-03-22T02:44:40.240Z,101796.39
2018-03-22T02:45:43.557Z,101802.52
2018-03-22T02:46:46.961Z,101791.52
2018-03-22T02:47:50.370Z,101790.59
2018-03-22T02:48:53.679Z,101791.02
2018-03-22T02:49:57.146Z,101791.45
2018-03-22T02:51:00.493Z,101787.95
2018-03-22T02:52:03.936Z,101780.48
2018-03-22T02:53:07.257Z,101776.09
2018-03-22T02:54:10.565Z,101779.22
2018-03-22T02:55:13.887Z,101774.84
2018-03-22T02:56:17.290Z,101768.67
2018-03-22T02:57:20.621Z,101763.83
2018-03-22T02:58:23.938Z,101759.88
2018-03-22T02:59:27.289Z,101759.02
2018-03-22T03:00:30.657Z,101755.98
2018-03-22T03:01:33.952Z,101755.13
2018-03-22T03:02:37.311Z,101750.77
2018-03-22T03:03:40.636Z,101749.45
2018-03-22T03:04:44.255Z,101752.58
2018-03-22T03:05:47.663Z,101748.98
2018-03-22T03:06:51.050Z,101738.02
2018-03-22T03:07:54.399Z,101749.84
2018-03-22T03:08:57.820Z,101746.33
2018-03-22T03:10:01.147Z,101741.94
2018-03-22T03:11:04.483Z,101740.59
2018-03-22T03:12:07.819Z,101737.09
2018-03-22T03:13:11.174Z,101730.05
2018-03-22T03:14:14.504Z,101734.43
2018-03-22T03:15:17.824Z,101733.11
2018-03-22T03:16:21.162Z,101732.66
2018-03-22T03:17:24.541Z,101733.08
2018-03-22T03:18:27.970Z,101729.13
2018-03-22T03:19:31.592Z,101729.13
2018-03-22T03:20:35.064Z,101730.38
2018-03-22T03:21:38.400Z,101727.72
2018-03-22T03:22:41.713Z,101727.75
2018-03-22T03:23:45.114Z,101726.42
2018-03-22T03:24:48.430Z,101725.08
2018-03-22T03:25:52.493Z,101723.33
2018-03-22T03:26:55.815Z,101723.33
2018-03-22T03:27:59.172Z,101717.17
2018-03-22T03:29:03.326Z,101712.78
2018-03-22T03:30:06.679Z,101710.58
2018-03-22T03:31:10.012Z,101711.44
2018-03-22T03:32:13.364Z,101701.32
2018-03-22T03:33:16.684Z,101700.44
2018-03-22T03:34:20.056Z,101701.29
2018-03-22T03:35:23.378Z,101696.45
2018-03-22T03:36:26.753Z,101692.48
2018-03-22T03:37:30.129Z,101696.94
2018-03-22T03:38:33.674Z,101685.96
2018-03-22T03:39:37.033Z,101686.81
2018-03-22T03:40:40.373Z,101684.64
2018-03-22T03:41:43.711Z,101681.14
2018-03-22T03:42:48.574Z,101679.86
2018-03-22T03:43:52.287Z,101678.14
2018-03-22T03:44:55.755Z,101681.70
2018-03-22T03:45:59.095Z,101675.11
2018-03-22T03:47:02.440Z,101678.60
2018-03-22T03:48:05.819Z,101677.31
2018-03-22T03:49:09.176Z,101681.27
2018-03-22T03:50:12.537Z,101674.28
2018-03-22T03:51:15.869Z,101677.77
2018-03-22T03:52:19.194Z,101674.68
2018-03-22T03:53:22.515Z,101674.22
2018-03-22T03:54:25.824Z,101672.91
2018-03-22T03:55:29.184Z,101675.54
2018-03-22T03:56:32.520Z,101672.47
2018-03-22T03:57:35.914Z,101668.52
2018-03-22T03:58:39.228Z,101664.99
2018-03-22T03:59:42.643Z,101668.52
2018-03-22T04:00:46.048Z,101669.83
2018-03-22T04:01:49.356Z,101669.83
2018-03-22T04:02:52.760Z,101666.77
2018-03-22T04:03:56.075Z,101670.69
2018-03-22T04:04:59.405Z,101664.59
2018-03-22T04:06:02.854Z,101660.14
2018-03-22T04:07:06.224Z,101662.36
2018-03-22T04:08:10.276Z,101654.47
2018-03-22T04:09:13.636Z,101652.73
2018-03-22T04:10:16.974Z,101647.91
2018-03-22T04:11:20.096Z,101652.73
2018-03-22T04:12:23.177Z,101652.33
2018-03-22T04:13:26.396Z,101657.67
2018-03-22T04:14:29.421Z,101657.23
2018-03-22T04:15:32.493Z,101655.06
2018-03-22T04:16:35.572Z,101650.24
2018-03-22T04:17:38.695Z,101651.53
2018-03-22T04:18:41.767Z,101648.01
2018-03-22T04:19:44.875Z,101646.72
2018-03-22T04:20:48.009Z,101645.83
2018-03-22T04:21:51.058Z,101640.13
2018-03-22T04:22:54.130Z,101642.30
2018-03-22T04:23:57.184Z,101634.39
2018-03-22T04:25:00.362Z,101633.08
2018-03-22T04:26:03.405Z,101630.02
2018-03-22T04:27:06.457Z,101634.86
2018-03-22T04:28:09.492Z,101627.38
2018-03-22T04:29:12.536Z,101625.59
2018-03-22T04:30:15.601Z,101626.85
2018-03-22T04:31:18.684Z,101620.69
2018-03-22T04:32:21.741Z,101618.02
2018-03-22T04:33:24.786Z,101612.30
2018-03-22T04:34:27.829Z,101600.40
2018-03-22T04:35:30.864Z,101595.13
2018-03-22T04:36:33.921Z,101599.51
2018-03-22T04:37:36.981Z,101603.00
2018-03-22T04:38:40.058Z,101606.47
2018-03-22T04:39:43.120Z,101603.40
2018-03-22T04:40:47.337Z,101601.69
2018-03-22T04:41:50.409Z,101599.94
2018-03-22T04:42:54.648Z,101597.79
2018-03-22T04:43:57.717Z,101609.20
2018-03-22T04:45:00.757Z,101593.81
2018-03-22T04:46:03.861Z,101587.25
2018-03-22T04:47:11.407Z,101589.42
2018-03-22T04:48:14.568Z,101589.45
2018-03-22T04:49:17.629Z,101584.67
2018-03-22T04:50:20.680Z,101595.64
2018-03-22T04:51:24.824Z,101594.76
2018-03-22T04:52:27.929Z,101594.82
2018-03-22T04:53:31.051Z,101588.63
2018-03-22T04:54:35.523Z,101590.38
2018-03-22T04:55:38.598Z,101586.42
2018-03-22T04:56:41.721Z,101582.46
2018-03-22T04:57:44.880Z,101575.41
2018-03-22T04:58:49.551Z,101585.07
2018-03-22T04:59:52.624Z,101578.51
2018-03-22T05:00:57.112Z,101578.05
2018-03-22T05:02:00.476Z,101577.62
2018-03-22T05:03:03.595Z,101579.37
2018-03-22T05:04:06.724Z,101581.20
2018-03-22T05:05:09.771Z,101577.72
2018-03-22T05:06:12.885Z,101571.09
2018-03-22T05:07:15.955Z,101570.14
2018-03-22T05:08:19.008Z,101568.83
2018-03-22T05:09:22.157Z,101566.16
2018-03-22T05:10:25.212Z,101556.92
2018-03-22T05:11:28.364Z,101563.06
2018-03-22T05:12:31.679Z,101556.03
2018-03-22T05:13:34.798Z,101557.33
2018-03-22T05:14:37.915Z,101553.38
2018-03-22T05:15:41.004Z,101556.86
2018-03-22T05:16:44.053Z,101555.55
2018-03-22T05:17:47.128Z,101559.50
2018-03-22T05:18:50.158Z,101557.75
2018-03-22T05:19:53.307Z,101550.27
2018-03-22T05:20:57.195Z,101549.84
2018-03-22T05:22:00.296Z,101550.30
2018-03-22T05:23:03.357Z,101546.72
2018-03-22T05:24:06.431Z,101543.62
2018-03-22T05:25:09.508Z,101540.09
2018-03-22T05:26:12.619Z,101538.34
2018-03-22T05:27:15.782Z,101535.70
2018-03-22T05:28:18.820Z,101534.78
2018-03-22T05:29:21.943Z,101536.56
2018-03-22T05:30:25.065Z,101535.22
2018-03-22T05:31:28.149Z,101535.22
2018-03-22T05:32:31.182Z,101536.17
2018-03-22T05:33:34.217Z,101530.00
2018-03-22T05:34:37.252Z,101523.91
2018-03-22T05:35:40.328Z,101532.22
2018-03-22T05:36:43.364Z,101525.59
2018-03-22T05:37:46.404Z,101519.03
2018-03-22T05:38:49.551Z,101524.27
2018-03-22T05:39:52.660Z,101511.48
2018-03-22T05:40:55.713Z,101514.98
2018-03-22T05:41:58.862Z,101517.16
2018-03-22T05:43:03.681Z,101508.82
2018-03-22T05:44:06.738Z,101509.70
2018-03-22T05:45:09.796Z,101514.45
2018-03-22T05:46:13.019Z,101510.47
2018-03-22T05:47:16.052Z,101509.15
2018-03-22T05:48:19.084Z,101515.28
2018-03-22T05:49:22.284Z,101507.83
2018-03-22T05:50:25.379Z,101505.23
2018-03-22T05:51:28.494Z,101511.82
2018-03-22T05:52:31.549Z,101513.14
2018-03-22T05:53:36.643Z,101510.47
2018-03-22T05:54:39.692Z,101518.41
2018-03-22T05:55:42.751Z,101515.44
2018-03-22T05:56:45.867Z,101513.73
2018-03-22T05:57:48.978Z,101517.35
2018-03-22T05:58:52.095Z,101516.95
2018-03-22T05:59:55.249Z,101517.05
2018-03-22T06:00:58.293Z,101525.84
2018-03-22T06:02:02.574Z,101522.35
2018-03-22T06:03:05.695Z,101525.88
2018-03-22T06:04:08.695Z,101532.04
2018-03-22T06:05:11.765Z,101522.78
2018-03-22T06:06:14.840Z,101527.20
2018-03-22T06:07:17.955Z,101523.67
2018-03-22T06:08:21.063Z,101525.35
2018-03-22T06:09:24.116Z,101523.64
2018-03-22T06:10:27.138Z,101525.42
2018-03-22T06:11:30.268Z,101528.42
2018-03-22T06:12:33.358Z,101521.41
2018-03-22T06:13:36.434Z,101520.58
2018-03-22T06:14:39.521Z,101516.62
2018-03-22T06:15:42.642Z,101512.70
2018-03-22T06:16:45.682Z,101512.27
2018-03-22T06:17:48.761Z,101519.35
2018-03-22T06:18:51.826Z,101502.22
2018-03-22T06:19:54.873Z,101501.45
2018-03-22T06:20:57.946Z,101502.81
2018-03-22T06:22:01.095Z,101501.09
2018-03-22T06:23:04.151Z,101498.59
2018-03-22T06:24:07.304Z,101499.91
2018-03-22T06:25:11.636Z,101504.78
2018-03-22T06:26:14.767Z,101506.59
2018-03-22T06:27:17.808Z,101502.14
2018-03-22T06:28:20.865Z,101500.06
2018-03-22T06:29:24.063Z,101500.06
2018-03-22T06:30:27.172Z,101505.80
2018-03-22T06:31:30.286Z,101495.71
2018-03-22T06:32:33.405Z,101496.14
2018-03-22T06:33:36.501Z,101499.73
2018-03-22T06:34:39.546Z,101499.73
2018-03-22T06:35:42.752Z,101494.92
2018-03-22T06:36:45.801Z,101491.42
2018-03-22T06:37:48.828Z,101497.55
2018-03-22T06:38:51.880Z,101498.88
2018-03-22T06:39:55.151Z,101494.49
2018-03-22T06:40:58.264Z,101486.12
2018-03-22T06:42:01.396Z,101487.87
2018-03-22T06:43:06.204Z,101487.37
2018-03-22T06:44:09.301Z,101487.02
2018-03-22T06:45:12.341Z,101482.17
2018-03-22T06:46:15.567Z,101480.42
2018-03-22T06:47:18.611Z,101481.31
2018-03-22T06:48:21.685Z,101483.09
2018-03-22T06:49:24.941Z,101480.88
2018-03-22T06:50:28.053Z,101481.31
2018-03-22T06:51:31.345Z,101473.38
2018-03-22T06:52:34.585Z,101477.76
2018-03-22T06:53:37.639Z,101471.10
2018-03-22T06:54:40.912Z,101466.69
2018-03-22T06:55:43.946Z,101461.45
2018-03-22T06:56:47.216Z,101465.80
2018-03-22T06:57:50.377Z,101464.48
2018-03-22T06:58:53.464Z,101460.95
2018-03-22T06:59:56.783Z,101464.02
2018-03-22T07:00:59.853Z,101458.35
2018-03-22T07:02:02.886Z,101457.89
2018-03-22T07:03:06.195Z,101457.89
2018-03-22T07:04:09.261Z,101456.08
2018-03-22T07:05:13.276Z,101456.51
2018-03-22T07:06:16.412Z,101445.97
2018-03-22T07:07:19.596Z,101450.74
2018-03-22T07:08:22.821Z,101449.39
2018-03-22T07:09:25.919Z,101449.39
2018-03-22T07:10:29.084Z,101444.55
2018-03-22T07:11:32.189Z,101446.73
2018-03-22T07:12:35.356Z,101449.79
2018-03-22T07:13:38.532Z,101444.06
2018-03-22T07:14:42.069Z,101443.63
2018-03-22T07:15:45.291Z,101443.16
2018-03-22T07:16:48.338Z,101437.89
2018-03-22T07:17:51.409Z,101440.53
2018-03-22T07:18:54.547Z,101433.05
2018-03-22T07:19:57.656Z,101431.23
2018-03-22T07:21:00.790Z,101434.73
2018-03-22T07:22:03.819Z,101431.63
2018-03-22T07:23:07.175Z,101428.97
2018-03-22T07:24:10.300Z,101428.97
2018-03-22T07:25:13.420Z,101429.39
2018-03-22T07:26:16.600Z,101424.55
2018-03-22T07:27:20.444Z,101427.16
2018-03-22T07:28:24.416Z,101432.82
2018-03-22T07:29:27.457Z,101431.50
2018-03-22T07:30:31.159Z,101425.02
2018-03-22T07:31:34.311Z,101432.03
2018-03-22T07:32:37.584Z,101425.90
2018-03-22T07:33:40.862Z,101425.47
2018-03-22T07:34:43.910Z,101417.59
2018-03-22T07:35:46.966Z,101417.56
2018-03-22T07:36:50.176Z,101414.07
2018-03-22T07:37:53.186Z,101416.25
2018-03-22T07:38:56.310Z,101414.93
2018-03-22T07:39:59.420Z,101416.64
2018-03-22T07:41:03.255Z,101403.92
2018-03-22T07:42:06.408Z,101407.41
2018-03-22T07:43:18.207Z,101405.67
2018-03-22T07:44:26.736Z,101404.88
2018-03-22T07:45:29.823Z,101406.33
2018-03-22T07:46:32.939Z,101409.36
2018-03-22T07:47:36.029Z,101407.16
2018-03-22T07:48:39.080Z,101402.24
2018-03-22T07:49:43.792Z,101408.34
2018-03-22T07:50:46.867Z,101399.97
2018-03-22T07:51:49.975Z,101400.36
2018-03-22T07:52:53.044Z,101399.37
2018-03-22T07:53:56.280Z,101398.88
2018-03-22T07:54:59.412Z,101398.81
2018-03-22T07:56:02.473Z,101392.66
2018-03-22T07:57:05.508Z,101389.09
2018-03-22T07:58:08.652Z,101392.58
2018-03-22T07:59:12.598Z,101391.69
2018-03-22T08:00:16.188Z,101395.19
2018-03-22T08:01:19.503Z,101392.09
2018-03-22T08:02:22.848Z,101386.28
2018-03-22T08:03:26.288Z,101387.14
2018-03-22T08:04:30.729Z,101391.06
2018-03-22T08:05:35.195Z,101394.56
2018-03-22T08:06:39.478Z,101387.44
2018-03-22T08:07:43.750Z,101384.27
2018-03-22T08:08:47.243Z,101383.74
2018-03-22T08:09:50.617Z,101385.91
2018-03-22T08:10:53.970Z,101383.22
2018-03-22T08:11:57.358Z,101382.68
2018-03-22T08:13:00.712Z,101387.06
2018-03-22T08:14:04.093Z,101384.39
2018-03-22T08:15:07.833Z,101383.50
2018-03-22T08:16:11.282Z,101390.95
2018-03-22T08:17:14.596Z,101385.61
2018-03-22T08:18:17.920Z,101393.95
2018-03-22T08:19:21.308Z,101383.38
2018-03-22T08:20:25.332Z,101380.70
2018-03-22T08:21:28.653Z,101374.53
2018-03-22T08:22:31.976Z,101370.61
2018-03-22T08:23:35.306Z,101378.95
2018-03-22T08:24:38.721Z,101371.44
2018-03-22T08:25:42.059Z,101375.33
2018-03-22T08:26:45.379Z,101368.73
2018-03-22T08:27:48.725Z,101369.59
2018-03-22T08:28:52.151Z,101374.86
2018-03-22T08:29:58.798Z,101363.45
2018-03-22T08:31:02.249Z,101366.09
2018-03-22T08:32:05.715Z,101362.11
2018-03-22T08:33:09.207Z,101357.22
2018-03-22T08:34:12.675Z,101358.94
2018-03-22T08:35:16.016Z,101353.66
2018-03-22T08:36:19.448Z,101352.70
2018-03-22T08:37:22.823Z,101356.63
2018-03-22T08:38:26.185Z,101350.49
2018-03-22T08:39:29.603Z,101342.98
2018-03-22T08:40:33.017Z,101339.45
2018-03-22T08:41:36.342Z,101346.43
2018-03-22T08:42:39.702Z,101341.16
2018-03-22T08:43:43.868Z,101341.52
2018-03-22T08:44:47.306Z,101335.78
2018-03-22T08:45:50.671Z,101339.73
2018-03-22T08:46:54.158Z,101342.73
2018-03-22T08:47:57.552Z,101338.77
2018-03-22T08:49:00.939Z,101335.22
2018-03-22T08:50:04.364Z,101331.69
2018-03-22T08:51:07.713Z,101332.11
2018-03-22T08:52:11.549Z,101329.83
2018-03-22T08:53:15.840Z,101325.77
2018-03-22T08:54:19.777Z,101321.78
2018-03-22T08:55:24.264Z,101324.38
2018-03-22T08:56:28.401Z,101319.17
2018-03-22T08:57:32.247Z,101319.57
2018-03-22T08:58:35.597Z,101316.47
2018-03-22T08:59:40.062Z,101315.58
2018-03-22T09:00:43.422Z,101316.90
2018-03-22T09:01:46.835Z,101312.05
2018-03-22T09:02:50.187Z,101308.56
2018-03-22T09:03:53.731Z,101306.81
2018-03-22T09:04:57.051Z,101305.95
2018-03-22T09:06:00.378Z,101302.03
2018-03-22T09:07:04.503Z,101305.56
2018-03-22T09:08:07.913Z,101304.31
2018-03-22T09:09:11.357Z,101307.77
2018-03-22T09:10:14.664Z,101305.98
2018-03-22T09:11:17.997Z,101299.36
2018-03-22T09:12:21.446Z,101304.64
2018-03-22T09:13:24.824Z,101299.36
2018-03-22T09:14:28.392Z,101297.58
2018-03-22T09:15:32.776Z,101294.02
2018-03-22T09:16:36.110Z,101300.11
2018-03-22T09:17:40.609Z,101291.80
2018-03-22T09:18:44.776Z,101292.59
2018-03-22T09:19:48.088Z,101297.41
2018-03-22T09:20:51.889Z,101290.77
2018-03-22T09:21:55.325Z,101292.95
2018-03-22T09:22:58.677Z,101295.52
2018-03-22T09:24:02.140Z,101298.97
2018-03-22T09:25:05.572Z,101291.45
2018-03-22T09:26:09.025Z,101291.02
2018-03-22T09:27:12.869Z,101291.02
2018-03-22T09:28:16.313Z,101284.39
2018-03-22T09:29:19.697Z,101292.16
2018-03-22T09:30:23.148Z,101289.06
2018-03-22T09:31:26.484Z,101288.20
2018-03-22T09:32:29.852Z,101295.23
2018-03-22T09:33:33.215Z,101296.91
2018-03-22T09:34:36.556Z,101290.73
2018-03-22T09:35:39.904Z,101294.23
2018-03-22T09:36:43.235Z,101295.20
2018-03-22T09:37:46.656Z,101292.95
2018-03-22T09:38:50.044Z,101288.53
2018-03-22T09:39:53.486Z,101292.45
2018-03-22T09:40:56.833Z,101292.84
2018-03-22T09:42:00.183Z,101293.20
2018-03-22T09:43:03.522Z,101294.45
2018-03-22T09:44:06.863Z,101291.70
2018-03-22T09:45:10.418Z,101292.09
2018-03-22T09:46:13.769Z,101290.27
2018-03-22T09:47:17.220Z,101293.70
2018-03-22T09:48:20.560Z,101287.45
2018-03-22T09:49:23.908Z,101286.45
2018-03-22T09:50:27.225Z,101277.15
2018-03-22T09:51:30.548Z,101283.70
2018-03-22T09:52:33.874Z,101285.85
2018-03-22T09:53:37.208Z,101284.03
2018-03-22T09:54:40.578Z,101281.35
2018-03-22T09:55:43.936Z,101285.28
2018-03-22T09:56:47.393Z,101282.10
2018-03-22T09:57:50.771Z,101289.48
2018-03-22T09:58:54.080Z,101292.55
2018-03-22T09:59:57.453Z,101287.27
2018-03-22T10:01:00.820Z,101281.50
2018-03-22T10:02:04.232Z,101284.13
2018-03-22T10:03:07.535Z,101272.75
2018-03-22T10:04:11.795Z,101277.50
2018-03-22T10:05:15.224Z,101270.44
2018-03-22T10:06:18.592Z,101274.36
2018-03-22T10:07:21.948Z,101271.14
2018-03-22T10:08:25.300Z,101281.16
2018-03-22T10:09:28.671Z,101279.73
2018-03-22T10:10:32.007Z,101273.49
2018-03-22T10:11:35.347Z,101273.81
2018-03-22T10:12:39.763Z,101276.84
2018-03-22T10:13:43.101Z,101273.66
2018-03-22T10:14:46.429Z,101275.34
2018-03-22T10:15:49.845Z,101274.37
2018-03-22T10:16:53.212Z,101276.09
2018-03-22T10:17:56.607Z,101276.47
2018-03-22T10:18:59.955Z,101276.86
2018-03-22T10:20:03.424Z,101270.66
2018-03-22T10:21:06.755Z,101260.48
2018-03-22T10:22:10.656Z,101258.20
2018-03-22T10:23:14.056Z,101256.77
2018-03-22T10:24:17.371Z,101252.30
2018-03-22T10:25:20.788Z,101257.02
2018-03-22T10:26:24.187Z,101256.43
2018-03-22T10:27:27.530Z,101258.14
2018-03-22T10:28:30.859Z,101251.46
2018-03-22T10:29:34.197Z,101253.99
2018-03-22T10:30:37.551Z,101247.78
2018-03-22T10:31:40.919Z,101248.09
2018-03-22T10:32:44.958Z,101249.38
2018-03-22T10:33:48.318Z,101245.34
2018-03-22T10:34:51.703Z,101247.91
2018-03-22T10:35:55.153Z,101244.80
2018-03-22T10:36:58.442Z,101248.69
2018-03-22T10:38:02.710Z,101249.42
2018-03-22T10:39:06.059Z,101243.72
2018-03-22T10:40:09.392Z,101246.28
2018-03-22T10:41:12.880Z,101245.32
2018-03-22T10:42:16.225Z,101247.03
2018-03-22T10:43:19.648Z,101242.98
2018-03-22T10:44:24.237Z,101244.63
2018-03-22T10:45:27.601Z,101247.66
2018-03-22T10:46:31.014Z,101249.25
2018-03-22T10:47:34.385Z,101243.89
2018-03-22T10:48:38.296Z,101240.75
2018-03-22T10:49:41.686Z,101239.31
2018-03-22T10:50:45.096Z,101235.66
2018-03-22T10:51:48.410Z,101243.13
2018-03-22T10:52:52.616Z,101236.02
2018-03-22T10:53:56.049Z,101236.44
2018-03-22T10:55:00.037Z,101231.51
2018-03-22T10:56:03.361Z,101231.08
2018-03-22T10:57:07.027Z,101230.19
2018-03-22T10:58:10.433Z,101230.61
2018-03-22T10:59:13.845Z,101223.08
2018-03-22T11:00:22.904Z,101230.58
2018-03-22T11:01:31.757Z,101227.89
2018-03-22T11:02:40.750Z,101225.72
2018-03-22T11:03:49.649Z,101222.65
2018-03-22T11:04:52.977Z,101212.94
2018-03-22T11:05:56.521Z,101215.42
2018-03-22T11:06:59.840Z,101219.70
2018-03-22T11:08:03.152Z,101211.70
2018-03-22T11:09:06.684Z,101212.02
2018-03-22T11:10:10.842Z,101215.85
2018-03-22T11:11:14.176Z,101207.81
2018-03-22T11:12:17.562Z,101205.95
2018-03-22T11:13:20.917Z,101206.25
2018-03-22T11:14:24.336Z,101204.78
2018-03-22T11:15:27.676Z,101198.48
2018-03-22T11:16:31.056Z,101197.47
2018-03-22T11:17:34.523Z,101199.56
2018-03-22T11:18:37.887Z,101194.55
2018-03-22T11:19:42.487Z,101198.31
2018-03-22T11:20:45.840Z,101196.41
2018-03-22T11:21:49.168Z,101195.36
2018-03-22T11:22:52.495Z,101196.09
2018-03-22T11:23:55.900Z,101197.14
2018-03-22T11:24:59.295Z,101195.73
2018-03-22T11:26:02.739Z,101188.03
2018-03-22T11:27:06.709Z,101193.55
2018-03-22T11:28:10.024Z,101189.42
2018-03-22T11:29:13.362Z,101191.09
2018-03-22T11:30:16.731Z,101184.78
2018-03-22T11:31:20.209Z,101183.00
2018-03-22T11:32:23.588Z,101179.84
2018-03-22T11:33:26.966Z,101181.09
2018-03-22T11:34:30.289Z,101178.05
2018-03-22T11:35:33.655Z,101176.22
2018-03-22T11:36:37.005Z,101174.98
2018-03-22T11:37:40.372Z,101169.69
2018-03-22T11:38:43.779Z,101167.82
2018-03-22T11:39:47.188Z,101167.82
2018-03-22T11:40:51.006Z,101168.25
2018-03-22T11:41:54.321Z,101173.45
2018-03-22T11:42:58.067Z,101173.88
2018-03-22T11:44:01.507Z,101168.09
2018-03-22T11:45:06.289Z,101177.34
2018-03-22T11:46:09.671Z,101174.61
2018-03-22T11:47:13.101Z,101170.65
2018-03-22T11:48:16.655Z,101168.31
2018-03-22T11:49:20.038Z,101165.59
2018-03-22T11:50:23.368Z,101168.06
2018-03-22T11:51:26.769Z,101170.20
2018-03-22T11:52:30.097Z,101164.02
2018-03-22T11:53:33.477Z,101167.44
2018-03-22T11:54:37.270Z,101165.72
2018-03-22T11:55:40.660Z,101167.94
2018-03-22T11:56:44.050Z,101165.77
2018-03-22T11:57:47.720Z,101166.66
2018-03-22T11:58:51.091Z,101165.37
2018-03-22T11:59:54.556Z,101165.80
2018-03-22T12:00:58.025Z,101162.11
2018-03-22T12:02:01.571Z,101160.66
2018-03-22T12:03:04.863Z,101160.96
2018-03-22T12:04:08.461Z,101164.77